createdAt,value
2023-04-14T00:04:54.036Z,7.06
2023-04-14T00:09:46.530Z,6.10
2023-04-14T00:14:38.617Z,5.84
2023-04-14T00:19:30.731Z,7.32
2023-04-14T00:24:22.685Z,5.20
2023-04-14T00:29:14.608Z,3.84
2023-04-14T00:34:07.079Z,5.69
2023-04-14T00:39:00.677Z,5.90
2023-04-14T00:43:55.898Z,4.98
2023-04-14T00:48:48.116Z,4.59
2023-04-14T00:53:41.164Z,4.51
2023-04-14T00:58:33.366Z,5.14
2023-04-14T01:03:26.559Z,5.08
2023-04-14T01:08:20.051Z,5.02
2023-04-14T01:13:33.798Z,5.12
2023-04-14T01:18:57.705Z,5.64
2023-04-14T01:24:22.374Z,3.44
2023-04-14T01:29:25.111Z,6.66
2023-04-14T01:34:25.583Z,4.17
2023-04-14T01:39:21.194Z,4.88
2023-04-14T01:44:16.721Z,6.09
2023-04-14T01:49:10.360Z,6.22
2023-04-14T01:54:05.639Z,3.37
2023-04-14T01:58:58.831Z,4.18
2023-04-14T02:03:52.061Z,5.26
2023-04-14T02:08:47.289Z,5.41
2023-04-14T02:13:41.551Z,3.66
2023-04-14T02:18:34.458Z,4.26
2023-04-14T02:23:26.559Z,4.29
2023-04-14T02:28:22.143Z,4.59
2023-04-14T02:33:22.163Z,5.64
2023-04-14T02:38:20.868Z,2.04
2023-04-14T02:43:18.002Z,4.08
2023-04-14T02:48:16.272Z,1.80
2023-04-14T02:53:10.462Z,5.90
2023-04-14T02:58:03.398Z,4.18
2023-04-14T03:03:04.153Z,4.30
2023-04-14T03:07:57.688Z,3.65
2023-04-14T03:12:53.978Z,3.86
2023-04-14T03:17:54.423Z,5.02
2023-04-14T03:22:58.795Z,5.00
2023-04-14T03:27:54.018Z,4.56
2023-04-14T03:32:48.062Z,3.03
2023-04-14T03:38:01.544Z,3.74
2023-04-14T03:42:55.877Z,1.93
2023-04-14T03:47:48.803Z,3.04
2023-04-14T03:52:45.338Z,3.71
2023-04-14T03:57:39.679Z,4.72
2023-04-14T04:02:32.346Z,3.66
2023-04-14T04:07:26.288Z,3.99
2023-04-14T04:12:20.745Z,2.60
2023-04-14T04:17:15.012Z,3.03
2023-04-14T04:22:09.585Z,4.11
2023-04-14T04:27:02.034Z,5.25
2023-04-14T04:31:55.963Z,3.46
2023-04-14T04:36:51.123Z,2.25
2023-04-14T04:41:43.346Z,2.45
2023-04-14T06:16:50.288Z,15.99
2023-04-14T06:21:42.293Z,16.71
2023-04-14T06:26:34.337Z,16.72
2023-04-14T06:31:26.367Z,17.74
2023-04-14T06:36:18.296Z,18.52
2023-04-14T06:41:10.018Z,19.49
2023-04-14T06:46:02.634Z,19.05
2023-04-14T06:50:56.142Z,19.58
2023-04-14T06:55:51.936Z,19.72
2023-04-14T07:00:43.740Z,21.92
2023-04-14T07:05:35.502Z,21.19
2023-04-14T07:10:27.295Z,23.03
2023-04-14T07:15:19.245Z,22.79
2023-04-14T07:20:11.576Z,23.16
2023-04-14T07:25:03.505Z,23.32
2023-04-14T07:29:55.306Z,24.01
2023-04-14T07:34:47.023Z,23.04
2023-04-14T07:39:38.807Z,26.24
2023-04-14T07:44:30.774Z,24.28
2023-04-14T07:49:22.691Z,26.66
2023-04-14T07:54:15.172Z,26.70
2023-04-14T07:59:07.011Z,26.41
2023-04-14T08:03:59.017Z,24.92
2023-04-14T08:08:50.875Z,26.42
2023-04-14T08:13:43.897Z,26.58
2023-04-14T08:18:36.778Z,26.51
2023-04-14T08:23:28.562Z,26.39
2023-04-14T08:28:20.312Z,26.29
2023-04-14T08:33:12.285Z,26.30
2023-04-14T08:38:04.134Z,25.51
2023-04-14T08:42:57.124Z,23.50
2023-04-14T08:47:52.128Z,23.64
2023-04-14T08:52:46.163Z,25.10
2023-04-14T08:57:38.558Z,26.07
2023-04-14T09:02:32.520Z,23.55
2023-04-14T09:07:24.779Z,20.93
2023-04-14T09:12:17.840Z,21.59
2023-04-14T09:17:09.749Z,23.47
2023-04-14T09:22:01.575Z,24.02
2023-04-14T09:26:53.376Z,21.76
2023-04-14T09:31:45.912Z,21.29
2023-04-14T09:36:37.713Z,19.85
2023-04-14T09:41:30.419Z,21.67
2023-04-14T09:46:22.580Z,20.85
2023-04-14T09:51:14.551Z,19.95
2023-04-14T09:56:09.689Z,20.20
2023-04-14T10:01:15.091Z,20.20
2023-04-14T10:06:17.269Z,18.91
2023-04-14T10:11:19.675Z,18.17
2023-04-14T10:16:11.644Z,17.23
2023-04-14T10:21:04.449Z,17.08
2023-04-14T10:25:57.796Z,16.13
2023-04-14T10:30:52.298Z,15.10
2023-04-14T10:35:46.628Z,17.38
2023-04-14T10:40:51.525Z,17.65
2023-04-14T10:45:56.276Z,15.45
2023-04-14T10:50:51.308Z,16.00
2023-04-14T10:55:52.258Z,16.13
2023-04-14T11:00:44.456Z,15.89
2023-04-14T11:05:41.891Z,15.74
2023-04-14T11:10:34.083Z,15.73
2023-04-14T11:15:43.913Z,17.51
2023-04-14T11:20:40.530Z,17.69
2023-04-14T11:25:35.744Z,17.26
2023-04-14T11:30:29.964Z,17.64
2023-04-14T11:35:24.973Z,17.81
2023-04-14T11:40:19.572Z,17.21
2023-04-14T11:45:16.570Z,15.32
2023-04-14T12:02:33.535Z,18.63
2023-04-14T12:07:30.375Z,19.75
2023-04-14T12:12:28.812Z,16.37
2023-04-14T12:17:24.737Z,17.19
2023-04-14T12:22:28.239Z,16.14
2023-04-14T12:27:23.729Z,15.30
2023-04-14T12:32:17.213Z,19.14
2023-04-14T12:37:11.599Z,16.94
2023-04-14T12:42:05.434Z,18.60
2023-04-14T12:46:59.776Z,17.66
2023-04-14T12:51:53.495Z,18.71
2023-04-14T12:56:45.900Z,17.70
2023-04-14T13:01:46.441Z,17.57
2023-04-14T13:06:39.062Z,19.50
2023-04-14T13:11:31.758Z,18.46
2023-04-14T13:16:27.260Z,16.74
2023-04-14T13:21:19.642Z,16.64
2023-04-14T13:26:12.685Z,17.96
2023-04-14T13:31:04.547Z,17.23
2023-04-14T13:35:56.586Z,18.80
2023-04-14T13:40:48.467Z,16.28
2023-04-14T13:45:40.428Z,16.15
2023-04-14T13:50:32.423Z,17.86
2023-04-14T13:55:24.478Z,16.69
2023-04-14T14:00:16.570Z,18.56
2023-04-14T14:05:11.817Z,18.30
2023-04-14T14:10:05.268Z,18.45
2023-04-14T14:14:57.166Z,17.87
2023-04-14T14:19:49.076Z,18.73
2023-04-14T14:24:41.069Z,19.57
2023-04-14T14:29:35.013Z,18.77
2023-04-14T14:34:31.911Z,18.62
2023-04-14T14:39:26.792Z,17.80
2023-04-14T14:44:18.585Z,18.83
2023-04-14T14:49:10.552Z,17.87
2023-04-14T14:54:09.723Z,18.97
2023-04-14T14:59:03.275Z,19.10
2023-04-14T15:03:55.080Z,19.07
2023-04-14T15:08:49.155Z,20.30
2023-04-14T15:13:41.177Z,18.42
2023-04-14T15:18:33.200Z,18.41
2023-04-14T15:23:25.061Z,19.00
2023-04-14T15:28:17.348Z,17.00
2023-04-14T15:33:09.108Z,18.47
2023-04-14T15:38:01.012Z,16.88
2023-04-14T15:42:54.125Z,18.35
2023-04-14T15:47:46.607Z,17.47
2023-04-14T15:52:39.880Z,18.71
2023-04-14T15:57:32.041Z,17.09
2023-04-14T16:02:24.210Z,17.81
2023-04-14T16:07:16.047Z,17.00
2023-04-14T16:12:07.965Z,17.68
2023-04-14T16:16:59.809Z,17.01
2023-04-14T16:21:52.012Z,17.55
2023-04-14T16:26:45.004Z,17.47
2023-04-14T16:31:37.265Z,17.47
2023-04-14T16:36:29.200Z,16.96
2023-04-14T16:41:21.367Z,17.93
2023-04-14T16:46:13.228Z,17.02
2023-04-14T16:51:09.351Z,17.62
2023-04-14T16:56:08.464Z,17.50
2023-04-14T17:01:00.701Z,16.66
2023-04-14T17:05:52.531Z,15.97
2023-04-14T17:10:44.384Z,15.50
2023-04-14T17:15:36.180Z,14.99
2023-04-14T17:20:28.367Z,14.67
2023-04-14T17:25:20.923Z,15.97
2023-04-14T17:30:12.911Z,14.96
2023-04-14T17:35:05.961Z,16.02
2023-04-14T17:39:59.117Z,15.08
2023-04-14T17:44:51.138Z,15.20
2023-04-14T17:49:44.110Z,13.58
2023-04-14T17:54:46.519Z,14.10
2023-04-14T17:59:42.528Z,14.61
2023-04-14T18:04:39.171Z,14.53
2023-04-14T18:09:31.194Z,13.52
2023-04-14T18:14:23.033Z,14.11
2023-04-14T18:19:15.004Z,12.33
2023-04-14T18:29:03.072Z,14.41
2023-04-14T18:33:55.385Z,11.37
2023-04-14T18:38:47.310Z,13.92
2023-04-14T18:43:39.757Z,11.56
2023-04-14T18:48:31.847Z,10.30
2023-04-14T18:53:28.831Z,13.41
2023-04-14T18:58:20.662Z,11.76
2023-04-14T19:03:12.594Z,12.17
2023-04-14T19:08:05.044Z,12.20
2023-04-14T19:12:57.319Z,13.05
2023-04-14T19:17:49.743Z,12.41
2023-04-14T19:22:42.137Z,11.05
2023-04-14T19:27:36.380Z,12.08
2023-04-14T19:32:28.408Z,10.50
2023-04-14T19:37:25.273Z,9.96
2023-04-14T19:42:17.253Z,10.70
2023-04-14T19:47:09.087Z,10.57
2023-04-14T19:52:01.811Z,10.93
2023-04-14T19:56:54.569Z,10.46
2023-04-14T20:01:47.514Z,9.51
2023-04-14T20:06:40.702Z,10.19
2023-04-14T20:11:32.741Z,7.82
2023-04-14T20:16:24.641Z,11.52
2023-04-14T20:21:16.935Z,8.53
2023-04-14T20:26:10.976Z,10.64
2023-04-14T20:31:03.551Z,11.66
2023-04-14T20:35:55.655Z,11.28
2023-04-14T20:40:47.602Z,9.53
2023-04-14T20:45:40.084Z,11.69
2023-04-14T20:50:33.424Z,9.16
2023-04-14T20:55:26.836Z,10.56
2023-04-14T21:00:19.000Z,9.54
2023-04-14T21:05:11.970Z,9.65
2023-04-14T21:10:06.938Z,11.67
2023-04-14T21:15:29.229Z,11.26
2023-04-14T21:20:11.717Z,9.42
2023-04-14T21:25:03.979Z,9.21
2023-04-14T21:29:56.095Z,10.18
2023-04-14T21:34:48.575Z,7.49
2023-04-14T21:39:40.658Z,9.26
2023-04-14T21:44:32.555Z,9.73
2023-04-14T21:49:24.539Z,9.44
2023-04-14T21:54:16.592Z,9.19
2023-04-14T21:59:08.643Z,8.15
2023-04-14T22:04:01.003Z,9.34
2023-04-14T22:08:52.893Z,8.70
2023-04-14T22:13:45.112Z,10.52
2023-04-14T22:18:38.927Z,10.27
2023-04-14T22:23:30.782Z,9.43
2023-04-14T22:28:22.669Z,9.53
2023-04-14T22:33:14.645Z,7.04
2023-04-14T22:38:07.020Z,9.42
2023-04-14T22:42:58.780Z,8.48
2023-04-14T22:47:50.982Z,9.55
2023-04-14T22:52:42.734Z,9.23
2023-04-14T22:57:34.538Z,8.02
2023-04-14T23:02:27.221Z,9.42
2023-04-14T23:07:19.886Z,7.71
2023-04-14T23:12:11.590Z,9.99
2023-04-14T23:17:03.564Z,7.33
2023-04-14T23:21:55.334Z,9.81
2023-04-14T23:26:47.198Z,8.72
2023-04-14T23:31:39.116Z,8.52
2023-04-14T23:36:31.853Z,8.58
2023-04-14T23:41:24.252Z,7.73
2023-04-14T23:46:16.310Z,8.61
2023-04-14T23:51:16.203Z,7.25
2023-04-14T23:56:10.704Z,9.00
